Baltimore, Maryland
Traffic Map
Current Weather Conditions
Baltimore, Maryland
Overcast
Overcast
43°
Feels Like: 37°
Wind Chill: 37° Ceiling: 9500
Heat Index: 43° Visibility: 10mi
Dew Point: 32° Wind: 12mph
Humidity: 65% Direction: 80° (E)
Pressure: 30.1in Gusts: 0mph
Raw Report DataKBWI 061354Z 08010KT 10SM SCT042 BKN095 OVC160 06/00 A3010 RMK AO2 SLP194 VIRGA SE-SW T00610000
Traffic Incident Summary
Active as of:
Severity:
Category:
InformationThere was an issue retrieving the traffic information for this location. Please try a different location or try again shortly.
Advertisements
Track Severe Weather on mobile